createdAt,value
2023-02-27T00:09:28.478Z,47.15
2023-02-27T00:14:34.525Z,36.08
2023-02-27T00:19:40.820Z,53.25
2023-02-27T00:29:52.588Z,32.88
2023-02-27T00:34:58.622Z,47.38
2023-02-27T00:40:06.850Z,37.63
2023-02-27T00:45:14.499Z,43.72
2023-02-27T00:50:20.838Z,68.22
2023-02-27T00:55:27.440Z,44.20
2023-02-27T01:00:33.722Z,37.55
2023-02-27T01:05:40.066Z,43.33
2023-02-27T01:10:46.124Z,49.13
2023-02-27T01:15:52.573Z,47.15
2023-02-27T01:20:59.049Z,48.38
2023-02-27T01:26:04.766Z,54.58
2023-02-27T01:31:12.154Z,37.42
2023-02-27T01:36:18.137Z,38.87
2023-02-27T01:41:25.390Z,42.70
2023-02-27T01:46:33.961Z,47.08
2023-02-27T01:51:44.213Z,35.25
2023-02-27T01:56:53.631Z,35.63
2023-02-27T02:02:00.592Z,29.50
2023-02-27T02:07:14.100Z,29.65
2023-02-27T02:12:31.828Z,44.92
2023-02-27T02:18:08.379Z,32.55
2023-02-27T02:23:45.701Z,43.53
2023-02-27T02:29:00.576Z,45.08
2023-02-27T02:34:32.627Z,32.15
2023-02-27T02:40:14.589Z,39.47
2023-02-27T02:45:35.364Z,47.72
2023-02-27T02:51:07.192Z,40.97
2023-02-27T02:56:27.023Z,44.75
2023-02-27T03:01:52.632Z,45.47
2023-02-27T03:07:08.828Z,41.72
2023-02-27T03:12:21.929Z,46.33
2023-02-27T03:17:54.021Z,37.38
2023-02-27T03:23:06.472Z,40.65
2023-02-27T03:28:17.073Z,45.28
2023-02-27T03:33:40.853Z,36.42
2023-02-27T03:39:20.837Z,45.28
2023-02-27T03:49:34.773Z,49.92
2023-02-27T03:54:49.557Z,41.90
2023-02-27T03:59:56.228Z,46.15
2023-02-27T04:05:02.476Z,44.78
2023-02-27T04:11:01.967Z,45.40
2023-02-27T04:16:41.816Z,33.65
2023-02-27T04:21:59.045Z,45.67
2023-02-27T04:27:27.553Z,27.30
2023-02-27T04:32:42.830Z,19.48
2023-02-27T04:38:01.517Z,43.15
2023-02-27T04:43:12.023Z,36.80
2023-02-27T04:49:07.672Z,38.63
2023-02-27T04:54:56.016Z,45.15
2023-02-27T05:00:09.517Z,42.47
2023-02-27T05:12:28.977Z,40.53
2023-02-27T05:17:38.515Z,41.38
2023-02-27T05:23:01.582Z,39.08
2023-02-27T05:28:18.620Z,39.05
2023-02-27T05:33:33.106Z,26.45
2023-02-27T05:38:43.857Z,39.28
2023-02-27T05:44:21.945Z,39.78
2023-02-27T05:49:52.098Z,39.63
2023-02-27T05:55:19.968Z,33.90
2023-02-27T06:00:54.010Z,37.97
2023-02-27T06:06:02.642Z,29.23
2023-02-27T06:11:12.077Z,25.58
2023-02-27T06:21:24.002Z,36.22
2023-02-27T06:26:30.244Z,36.97
2023-02-27T06:31:36.590Z,36.83
2023-02-27T06:36:43.134Z,29.73
2023-02-27T06:41:49.009Z,22.95
2023-02-27T06:46:54.998Z,34.90
2023-02-27T06:52:01.167Z,41.20
2023-02-27T06:57:07.343Z,28.40
2023-02-27T07:02:15.708Z,48.00
2023-02-27T07:07:34.985Z,19.25
2023-02-27T07:12:44.025Z,41.35
2023-02-27T07:17:50.097Z,38.95
2023-02-27T07:22:56.093Z,47.22
2023-02-27T07:28:02.324Z,37.00
2023-02-27T07:33:08.664Z,51.47
2023-02-27T07:43:20.694Z,48.53
2023-02-27T07:48:26.960Z,23.42
2023-02-27T07:53:32.628Z,35.83
2023-02-27T07:58:38.700Z,26.73
2023-02-27T08:03:44.734Z,39.83
2023-02-27T08:14:00.537Z,50.05
2023-02-27T08:19:07.612Z,57.72
2023-02-27T08:24:13.590Z,25.50
2023-02-27T08:29:20.164Z,56.63
2023-02-27T08:34:27.187Z,62.08
2023-02-27T08:39:33.808Z,55.22
2023-02-27T08:44:40.140Z,57.35
2023-02-27T08:54:56.581Z,53.15
2023-02-27T09:00:07.726Z,50.78
2023-02-27T09:05:17.358Z,64.28
2023-02-27T09:15:28.995Z,62.15
2023-02-27T09:20:38.321Z,58.78
2023-02-27T09:25:44.518Z,60.70
2023-02-27T09:30:50.787Z,63.17
2023-02-27T09:41:03.689Z,58.37
2023-02-27T09:46:13.181Z,58.65
2023-02-27T09:51:20.042Z,56.72
2023-02-27T09:56:28.993Z,58.70
2023-02-27T10:01:43.082Z,59.20
2023-02-27T10:07:00.134Z,59.47
2023-02-27T10:12:10.719Z,59.42
2023-02-27T10:17:26.206Z,56.03
2023-02-27T10:22:43.544Z,53.17
2023-02-27T10:27:51.981Z,53.90
2023-02-27T10:33:15.984Z,55.95
2023-02-27T10:38:48.369Z,58.08
2023-02-27T10:44:01.096Z,55.53
2023-02-27T10:49:19.145Z,52.65
2023-02-27T10:54:27.772Z,53.75
2023-02-27T10:59:40.536Z,53.55
2023-02-27T11:05:01.241Z,50.25
2023-02-27T11:10:15.839Z,52.72
2023-02-27T11:15:29.603Z,54.45
2023-02-27T11:20:47.304Z,51.00
2023-02-27T11:26:13.610Z,50.47
2023-02-27T11:31:27.174Z,51.63
2023-02-27T11:36:48.987Z,52.15
2023-02-27T11:41:57.367Z,53.50
2023-02-27T11:47:17.487Z,52.95
2023-02-27T11:53:11.334Z,50.35
2023-02-27T11:58:26.888Z,51.75
2023-02-27T12:03:48.360Z,52.97
2023-02-27T12:09:07.706Z,54.25
2023-02-27T12:14:20.661Z,57.83
2023-02-27T12:20:02.692Z,53.70
2023-02-27T12:25:36.403Z,61.70
2023-02-27T12:37:18.218Z,75.90
2023-02-27T12:42:57.186Z,65.65
2023-02-27T12:48:40.398Z,73.35
2023-02-27T12:54:00.384Z,65.63
2023-02-27T12:59:29.393Z,61.58
2023-02-27T13:04:47.538Z,50.92
2023-02-27T13:10:05.776Z,61.47
2023-02-27T13:15:39.368Z,54.70
2023-02-27T13:20:57.431Z,79.57
2023-02-27T13:26:06.213Z,65.05
2023-02-27T13:31:42.682Z,68.68
2023-02-27T13:37:07.952Z,61.03
2023-02-27T13:42:33.353Z,69.63
2023-02-27T13:48:02.058Z,61.50
2023-02-27T13:53:18.019Z,64.78
2023-02-27T13:58:26.602Z,61.30
2023-02-27T14:03:35.251Z,55.88
2023-02-27T14:08:57.540Z,66.40
2023-02-27T14:14:46.980Z,33.50
2023-02-27T14:20:06.416Z,52.35
2023-02-27T14:25:18.504Z,59.70
2023-02-27T14:30:44.973Z,59.95
2023-02-27T14:36:02.064Z,54.88
2023-02-27T14:41:35.965Z,59.00
2023-02-27T14:59:49.289Z,55.45
2023-02-27T15:05:11.712Z,57.42
2023-02-27T15:10:32.321Z,53.15
2023-02-27T15:16:16.505Z,49.47
2023-02-27T15:22:38.528Z,47.33
2023-02-27T15:29:37.702Z,58.35
2023-02-27T15:36:06.700Z,37.65
2023-02-27T15:41:16.887Z,54.77
2023-02-27T15:46:23.450Z,53.15
2023-02-27T15:51:30.093Z,55.38
2023-02-27T15:56:39.788Z,55.83
2023-02-27T16:01:47.076Z,59.00
2023-02-27T16:07:00.464Z,62.05
2023-02-27T16:12:46.320Z,62.20
2023-02-27T16:18:06.082Z,63.40
2023-02-27T16:23:30.052Z,60.40
2023-02-27T16:28:42.105Z,56.65
2023-02-27T16:33:48.756Z,59.28
2023-02-27T16:38:55.604Z,54.65
2023-02-27T16:44:02.048Z,60.30
2023-02-27T16:54:27.527Z,57.50
2023-02-27T16:59:40.898Z,56.05
2023-02-27T17:04:49.731Z,60.78
2023-02-27T17:10:02.388Z,60.13
2023-02-27T17:15:08.835Z,55.58
2023-02-27T17:20:16.655Z,55.13
2023-02-27T17:25:23.003Z,56.08
2023-02-27T17:30:29.177Z,52.78
2023-02-27T17:40:44.936Z,60.72
2023-02-27T17:45:54.073Z,56.50
2023-02-27T17:51:07.746Z,57.42
2023-02-27T17:56:14.944Z,53.22
2023-02-27T18:01:24.705Z,56.30
2023-02-27T18:06:31.179Z,57.67
2023-02-27T18:11:39.200Z,55.42
2023-02-27T18:16:46.950Z,53.28
2023-02-27T18:21:55.512Z,53.30
2023-02-27T18:27:01.713Z,51.55
2023-02-27T18:37:15.800Z,53.95
2023-02-27T18:42:21.883Z,46.88
2023-02-27T18:47:30.511Z,54.53
2023-02-27T18:52:37.335Z,56.58
2023-02-27T18:57:44.479Z,54.13
2023-02-27T19:02:54.608Z,54.17
2023-02-27T19:08:01.043Z,54.45
2023-02-27T19:13:07.290Z,55.75
2023-02-27T19:18:13.686Z,49.50
2023-02-27T19:28:24.931Z,54.58
2023-02-27T19:33:30.913Z,51.42
2023-02-27T19:38:37.892Z,49.33
2023-02-27T19:43:44.575Z,51.65
2023-02-27T19:48:51.992Z,49.72
2023-02-27T19:53:58.732Z,49.33
2023-02-27T19:59:05.472Z,58.83
2023-02-27T20:04:12.837Z,50.13
2023-02-27T20:09:22.192Z,51.80
2023-02-27T20:14:28.903Z,47.03
2023-02-27T20:19:35.196Z,50.38
2023-02-27T20:24:41.755Z,63.08
2023-02-27T20:29:49.928Z,58.60
2023-02-27T20:34:56.893Z,61.10
2023-02-27T20:40:03.272Z,59.15
2023-02-27T20:45:10.060Z,64.15
2023-02-27T20:50:16.734Z,60.03
2023-02-27T20:55:23.596Z,56.65
2023-02-27T21:00:30.077Z,58.20
2023-02-27T21:05:36.587Z,57.10
2023-02-27T21:10:42.930Z,61.90
2023-02-27T21:15:49.298Z,59.05
2023-02-27T21:20:56.547Z,63.78
2023-02-27T21:26:06.695Z,69.78
2023-02-27T21:31:12.937Z,72.78
2023-02-27T21:36:19.750Z,68.35
2023-02-27T21:41:25.743Z,64.53
2023-02-27T21:46:32.236Z,63.00
2023-02-27T21:51:40.923Z,68.28
2023-02-27T21:56:50.134Z,70.32
2023-02-27T22:01:56.581Z,67.45
2023-02-27T22:07:02.974Z,63.67
2023-02-27T22:12:09.701Z,61.70
2023-02-27T22:17:16.090Z,66.57
2023-02-27T22:22:22.890Z,66.10
2023-02-27T22:27:29.401Z,62.88
2023-02-27T22:37:41.120Z,60.03
2023-02-27T22:47:53.800Z,59.80
2023-02-27T22:53:00.237Z,63.88
2023-02-27T23:03:12.036Z,67.88
2023-02-27T23:08:19.121Z,59.60
2023-02-27T23:13:25.655Z,63.28
2023-02-27T23:18:32.545Z,61.28
2023-02-27T23:23:39.873Z,61.78
2023-02-27T23:28:49.905Z,60.78
2023-02-27T23:33:56.021Z,62.22
2023-02-27T23:39:04.519Z,66.93
2023-02-27T23:44:35.471Z,62.83
2023-02-27T23:49:42.084Z,55.00
2023-02-27T23:54:49.054Z,66.32
2023-02-27T23:59:55.699Z,70.88
